createdAt,value
2023-01-12T00:01:43.863Z,10.19
2023-01-12T00:04:15.169Z,11.04
2023-01-12T00:06:42.296Z,10.32
2023-01-12T00:09:10.099Z,12.96
2023-01-12T00:11:38.171Z,15.07
2023-01-12T00:14:06.778Z,11.04
2023-01-12T00:16:39.747Z,12.48
2023-01-12T00:19:22.744Z,11.61
2023-01-12T00:22:12.491Z,10.96
2023-01-12T00:24:42.117Z,12.87
2023-01-12T00:27:12.159Z,11.98
2023-01-12T00:29:39.354Z,13.27
2023-01-12T00:32:14.793Z,11.92
2023-01-12T00:34:41.672Z,13.01
2023-01-12T00:37:09.411Z,12.24
2023-01-12T00:39:40.406Z,10.60
2023-01-12T00:42:26.348Z,10.81
2023-01-12T00:45:11.874Z,11.94
2023-01-12T00:47:38.697Z,11.89
2023-01-12T00:50:05.923Z,10.92
2023-01-12T00:52:32.713Z,13.45
2023-01-12T00:55:00.000Z,10.82
2023-01-12T00:57:28.833Z,8.31
2023-01-12T00:59:58.477Z,9.71
2023-01-12T01:02:26.192Z,11.07
2023-01-12T01:04:52.996Z,9.89
2023-01-12T01:07:21.749Z,9.37
2023-01-12T01:09:49.723Z,9.65
2023-01-12T01:12:16.721Z,9.45
2023-01-12T01:14:43.806Z,12.22
2023-01-12T01:17:10.563Z,12.60
2023-01-12T01:19:37.521Z,12.39
2023-01-12T01:22:04.842Z,10.87
2023-01-12T01:24:31.611Z,12.11
2023-01-12T01:26:58.679Z,10.79
2023-01-12T01:29:25.367Z,10.22
2023-01-12T01:31:55.168Z,10.57
2023-01-12T01:34:24.032Z,8.51
2023-01-12T01:36:51.104Z,10.01
2023-01-12T01:39:18.481Z,10.02
2023-01-12T01:41:45.447Z,10.68
2023-01-12T01:44:30.345Z,8.70
2023-01-12T01:47:11.331Z,8.35
2023-01-12T01:49:43.788Z,11.56
2023-01-12T01:52:31.446Z,10.56
2023-01-12T01:55:00.869Z,9.51
2023-01-12T01:57:33.824Z,10.91
2023-01-12T02:00:01.835Z,9.85
2023-01-12T02:02:29.206Z,9.23
2023-01-12T02:04:57.407Z,10.40
2023-01-12T02:07:25.270Z,9.58
2023-01-12T02:09:52.042Z,10.97
2023-01-12T02:12:40.491Z,9.53
2023-01-12T02:15:26.388Z,8.25
2023-01-12T02:18:29.020Z,10.86
2023-01-12T02:21:16.799Z,9.44
2023-01-12T02:23:46.281Z,8.70
2023-01-12T02:26:19.044Z,10.23
2023-01-12T02:28:49.512Z,9.62
2023-01-12T02:31:28.318Z,10.87
2023-01-12T02:34:01.122Z,10.57
2023-01-12T02:37:05.370Z,8.69
2023-01-12T02:39:50.480Z,10.47
2023-01-12T02:42:39.073Z,8.69
2023-01-12T02:45:25.042Z,10.79
2023-01-12T02:48:24.180Z,10.38
2023-01-12T02:50:57.185Z,10.67
2023-01-12T02:53:43.510Z,8.62
2023-01-12T02:56:13.821Z,9.23
2023-01-12T02:58:46.098Z,9.28
2023-01-12T03:01:16.687Z,8.76
2023-01-12T03:03:43.847Z,10.32
2023-01-12T03:06:17.331Z,9.73
2023-01-12T03:08:47.600Z,10.14
2023-01-12T03:11:16.793Z,8.17
2023-01-12T03:13:54.254Z,9.26
2023-01-12T03:16:26.979Z,9.38
2023-01-12T03:19:02.378Z,8.79
2023-01-12T03:21:47.635Z,9.66
2023-01-12T03:24:23.351Z,9.34
2023-01-12T03:26:56.133Z,9.50
2023-01-12T03:29:29.936Z,8.77
2023-01-12T03:31:57.182Z,7.35
2023-01-12T03:34:24.051Z,8.50
2023-01-12T03:37:11.409Z,6.83
2023-01-12T03:39:54.742Z,7.57
2023-01-12T03:42:26.359Z,9.61
2023-01-12T03:45:35.990Z,9.23
2023-01-12T03:48:09.658Z,6.41
2023-01-12T03:50:42.856Z,8.04
2023-01-12T03:53:12.385Z,5.97
2023-01-12T03:55:40.305Z,6.94
2023-01-12T03:58:07.403Z,7.42
2023-01-12T04:00:34.876Z,7.00
2023-01-12T04:03:10.419Z,8.04
2023-01-12T04:05:37.869Z,7.67
2023-01-12T04:08:04.928Z,7.89
2023-01-12T04:10:31.766Z,4.77
2023-01-12T04:12:58.534Z,5.54
2023-01-12T04:15:25.417Z,6.78
2023-01-12T04:17:52.506Z,6.78
2023-01-12T04:20:20.224Z,6.44
2023-01-12T04:22:47.433Z,6.33
2023-01-12T04:25:17.108Z,5.01
2023-01-12T04:28:01.143Z,6.64
2023-01-12T04:30:29.658Z,5.75
2023-01-12T04:32:57.473Z,5.78
2023-01-12T04:35:24.895Z,7.10
2023-01-12T04:37:52.808Z,5.33
2023-01-12T04:40:20.262Z,8.65
2023-01-12T04:43:01.837Z,9.12
2023-01-12T04:45:29.516Z,8.43
2023-01-12T04:47:56.350Z,6.89
2023-01-12T04:50:23.165Z,5.13
2023-01-12T04:52:50.387Z,6.06
2023-01-12T04:55:17.217Z,5.44
2023-01-12T04:57:43.954Z,6.79
2023-01-12T05:00:11.846Z,6.47
2023-01-12T05:02:38.594Z,8.26
2023-01-12T05:05:06.937Z,7.83
2023-01-12T05:07:33.629Z,8.50
2023-01-12T05:10:18.639Z,7.58
2023-01-12T05:12:45.728Z,9.48
2023-01-12T05:15:12.478Z,4.39
2023-01-12T05:17:39.220Z,8.39
2023-01-12T05:20:07.219Z,5.86
2023-01-12T05:22:33.984Z,8.56
2023-01-12T05:25:00.989Z,8.53
2023-01-12T05:27:27.750Z,7.70
2023-01-12T05:29:57.152Z,8.00
2023-01-12T05:32:23.973Z,7.67
2023-01-12T05:34:50.811Z,6.95
2023-01-12T05:37:17.529Z,7.89
2023-01-12T05:39:44.335Z,8.88
2023-01-12T05:42:31.662Z,8.05
2023-01-12T05:44:58.532Z,7.98
2023-01-12T05:47:25.464Z,6.47
2023-01-12T05:49:52.434Z,5.09
2023-01-12T05:52:19.168Z,6.87
2023-01-12T05:54:46.177Z,7.76
2023-01-12T05:57:12.923Z,9.19
2023-01-12T05:59:39.638Z,6.75
2023-01-12T06:02:08.525Z,6.26
2023-01-12T06:04:36.334Z,7.01
2023-01-12T06:07:03.190Z,5.48
2023-01-12T06:09:30.295Z,5.14
2023-01-12T06:12:16.266Z,7.30
2023-01-12T06:14:42.992Z,7.21
2023-01-12T06:17:09.733Z,6.73
2023-01-12T06:19:37.174Z,6.46
2023-01-12T06:22:04.367Z,6.54
2023-01-12T06:24:31.397Z,6.33
2023-01-12T06:26:58.657Z,6.17
2023-01-12T06:29:25.321Z,6.11
2023-01-12T06:31:52.799Z,8.14
2023-01-12T06:34:20.334Z,8.12
2023-01-12T06:36:47.818Z,6.92
2023-01-12T06:39:14.502Z,8.73
2023-01-12T06:41:59.572Z,7.97
2023-01-12T06:44:26.315Z,8.13
2023-01-12T06:46:53.103Z,7.69
2023-01-12T06:49:19.928Z,7.81
2023-01-12T06:51:51.685Z,6.98
2023-01-12T06:54:18.922Z,6.34
2023-01-12T06:56:45.888Z,7.63
2023-01-12T06:59:13.066Z,7.94
2023-01-12T07:01:40.874Z,5.32
2023-01-12T07:04:08.936Z,5.88
2023-01-12T07:06:36.482Z,6.94
2023-01-12T07:09:03.858Z,6.46
2023-01-12T07:11:30.960Z,8.02
2023-01-12T07:13:57.810Z,7.79
2023-01-12T07:16:24.744Z,7.19
2023-01-12T07:18:51.692Z,7.64
2023-01-12T07:21:19.781Z,8.21
2023-01-12T07:23:46.489Z,8.62
2023-01-12T07:26:13.505Z,7.91
2023-01-12T07:28:40.852Z,7.87
2023-01-12T07:31:09.368Z,7.24
2023-01-12T07:33:38.238Z,9.47
2023-01-12T07:36:05.523Z,7.95
2023-01-12T07:38:32.907Z,8.58
2023-01-12T07:41:01.464Z,8.76
2023-01-12T07:43:29.122Z,6.53
2023-01-12T07:45:58.109Z,6.42
2023-01-12T07:48:26.733Z,6.25
2023-01-12T07:50:54.884Z,6.57
2023-01-12T07:53:23.922Z,7.77
2023-01-12T07:55:50.717Z,7.32
2023-01-12T07:58:17.854Z,6.57
2023-01-12T08:00:44.622Z,7.82
2023-01-12T08:03:14.130Z,5.94
2023-01-12T08:05:41.493Z,6.78
2023-01-12T08:08:08.833Z,5.93
2023-01-12T08:10:35.965Z,5.81
2023-01-12T08:13:03.030Z,4.82
2023-01-12T08:15:35.658Z,3.95
2023-01-12T08:18:08.881Z,6.05
2023-01-12T08:20:37.557Z,4.70
2023-01-12T08:23:15.369Z,5.60
2023-01-12T08:25:45.626Z,8.23
2023-01-12T08:28:17.993Z,8.05
2023-01-12T08:30:48.015Z,6.45
2023-01-12T08:33:16.080Z,7.87
2023-01-12T08:35:46.370Z,7.62
2023-01-12T08:38:14.088Z,9.59
2023-01-12T08:40:59.297Z,10.26
2023-01-12T08:43:44.687Z,6.66
2023-01-12T08:46:11.649Z,8.94
2023-01-12T08:48:40.833Z,8.06
2023-01-12T08:51:09.231Z,9.56
2023-01-12T08:53:36.236Z,8.06
2023-01-12T08:56:03.444Z,9.24
2023-01-12T08:58:31.376Z,9.00
2023-01-12T09:01:08.160Z,6.67
2023-01-12T09:03:36.121Z,8.59
2023-01-12T09:06:18.484Z,7.47
2023-01-12T09:08:46.064Z,5.12
2023-01-12T09:11:14.719Z,10.74
2023-01-12T09:13:41.927Z,8.35
2023-01-12T09:16:13.545Z,8.89
2023-01-12T09:18:41.608Z,7.24
2023-01-12T09:21:11.351Z,7.57
2023-01-12T09:23:39.519Z,8.46
2023-01-12T09:26:09.577Z,8.62
2023-01-12T09:28:38.067Z,8.53
2023-01-12T09:31:11.418Z,9.47
2023-01-12T09:33:40.063Z,6.51
2023-01-12T09:36:08.979Z,9.37
2023-01-12T09:38:38.487Z,6.32
2023-01-12T09:41:43.855Z,8.44
2023-01-12T09:44:41.627Z,6.17
2023-01-12T09:47:27.232Z,10.06
2023-01-12T09:50:09.409Z,7.79
2023-01-12T09:53:02.792Z,7.96
2023-01-12T09:55:51.832Z,9.69
2023-01-12T09:58:39.378Z,9.29
2023-01-12T10:01:28.189Z,10.69
2023-01-12T10:03:59.355Z,11.22
2023-01-12T10:06:26.699Z,12.09
2023-01-12T10:09:13.847Z,11.08
2023-01-12T10:12:04.933Z,13.33
2023-01-12T10:14:56.537Z,13.79
2023-01-12T10:17:41.983Z,11.60
2023-01-12T10:20:28.636Z,13.36
2023-01-12T10:23:01.986Z,14.05
2023-01-12T10:26:03.983Z,14.06
2023-01-12T10:28:35.686Z,11.56
2023-01-12T10:31:04.123Z,14.07
2023-01-12T10:33:33.153Z,13.75
2023-01-12T10:36:29.704Z,12.78
2023-01-12T10:39:04.096Z,15.36
2023-01-12T10:41:35.524Z,10.90
2023-01-12T10:44:13.498Z,13.32
2023-01-12T10:46:40.557Z,13.68
2023-01-12T10:49:19.588Z,13.88
2023-01-12T10:51:55.348Z,14.98
2023-01-12T10:54:37.287Z,15.65
2023-01-12T10:57:22.480Z,13.89
2023-01-12T10:59:59.683Z,13.96
2023-01-12T11:02:43.651Z,14.31
2023-01-12T11:05:39.087Z,14.96
2023-01-12T11:08:28.343Z,11.85
2023-01-12T11:10:55.707Z,11.75
2023-01-12T11:13:37.641Z,11.29
2023-01-12T11:16:18.019Z,12.92
2023-01-12T11:19:19.926Z,16.64
2023-01-12T11:21:57.474Z,11.52
2023-01-12T11:24:45.208Z,14.66
2023-01-12T11:27:21.439Z,16.47
2023-01-12T11:30:04.137Z,14.47
2023-01-12T11:32:50.020Z,16.23
2023-01-12T11:35:58.605Z,16.04
2023-01-12T11:38:33.923Z,15.68
2023-01-12T11:41:01.657Z,13.36
2023-01-12T11:43:56.194Z,15.15
2023-01-12T11:46:35.984Z,14.36
2023-01-12T11:49:20.148Z,13.00
2023-01-12T11:51:56.638Z,15.43
2023-01-12T11:54:25.329Z,14.81
2023-01-12T11:57:12.303Z,15.98
2023-01-12T12:00:12.474Z,16.21
2023-01-12T12:02:46.245Z,15.94
2023-01-12T12:05:43.406Z,15.09
2023-01-12T12:08:22.215Z,14.26
2023-01-12T12:11:11.591Z,12.34
2023-01-12T12:13:57.500Z,14.11
2023-01-12T12:16:40.627Z,15.30
2023-01-12T12:19:25.751Z,14.78
2023-01-12T12:22:05.956Z,13.30
2023-01-12T12:25:02.863Z,12.92
2023-01-12T12:27:41.667Z,15.06
2023-01-12T12:30:28.662Z,15.99
2023-01-12T12:33:40.642Z,15.66
2023-01-12T12:36:26.372Z,13.11
2023-01-12T12:39:27.164Z,14.41
2023-01-12T12:42:25.159Z,16.09
2023-01-12T12:45:16.940Z,15.57
2023-01-12T12:47:56.208Z,13.43
2023-01-12T12:50:31.849Z,14.88
2023-01-12T12:53:05.802Z,15.87
2023-01-12T12:55:32.802Z,13.24
2023-01-12T12:58:29.804Z,14.14
2023-01-12T13:01:19.687Z,11.07
2023-01-12T13:03:50.860Z,14.60
2023-01-12T13:06:32.832Z,13.94
2023-01-12T13:09:02.391Z,12.69
2023-01-12T13:12:00.323Z,13.95
2023-01-12T13:14:30.254Z,13.07
2023-01-12T13:17:19.809Z,13.98
2023-01-12T13:20:08.248Z,13.56
2023-01-12T13:22:45.142Z,12.28
2023-01-12T13:25:22.225Z,13.08
2023-01-12T13:28:01.321Z,11.59
2023-01-12T13:30:31.343Z,11.17
2023-01-12T13:33:14.684Z,14.56
2023-01-12T13:35:44.674Z,12.27
2023-01-12T13:38:39.636Z,11.18
2023-01-12T13:41:38.299Z,14.54
2023-01-12T13:44:15.520Z,11.89
2023-01-12T13:46:51.430Z,10.70
2023-01-12T13:49:26.726Z,12.80
2023-01-12T13:52:00.601Z,14.19
2023-01-12T13:54:28.001Z,11.69
2023-01-12T13:57:18.330Z,11.90
2023-01-12T14:00:09.029Z,13.54
2023-01-12T14:02:41.946Z,14.84
2023-01-12T14:06:02.625Z,11.84
2023-01-12T14:08:52.365Z,13.88
2023-01-12T14:11:25.083Z,11.99
2023-01-12T14:14:46.030Z,12.15
2023-01-12T14:17:36.655Z,11.71
2023-01-12T14:20:13.085Z,13.58
2023-01-12T14:22:39.986Z,10.14
2023-01-12T14:25:22.294Z,11.98
2023-01-12T14:27:50.607Z,13.31
2023-01-12T14:30:17.966Z,11.85
2023-01-12T14:32:47.720Z,12.51
2023-01-12T14:35:22.779Z,10.05
2023-01-12T14:38:00.698Z,11.90
2023-01-12T14:40:33.201Z,12.54
2023-01-12T14:43:20.893Z,13.14
2023-01-12T14:46:18.637Z,13.53
2023-01-12T14:49:30.725Z,12.35
2023-01-12T14:52:17.467Z,13.23
2023-01-12T14:54:44.424Z,10.77
2023-01-12T14:57:28.056Z,11.84
2023-01-12T14:59:55.478Z,12.20
2023-01-12T15:02:37.067Z,12.15
2023-01-12T15:05:18.144Z,12.18
2023-01-12T15:07:58.225Z,12.56
2023-01-12T15:10:32.596Z,13.98
2023-01-12T15:13:27.806Z,12.84
2023-01-12T15:16:15.032Z,12.32
2023-01-12T15:19:04.861Z,13.02
2023-01-12T15:21:52.421Z,10.24
2023-01-12T15:24:49.044Z,11.10
2023-01-12T15:27:21.719Z,10.93
2023-01-12T15:29:49.006Z,8.73
2023-01-12T15:32:47.437Z,11.10
2023-01-12T15:35:24.030Z,12.22
2023-01-12T15:37:54.165Z,11.51
2023-01-12T15:40:22.632Z,11.26
2023-01-12T15:42:53.124Z,10.45
2023-01-12T15:45:28.172Z,11.19
2023-01-12T15:47:55.987Z,10.36
2023-01-12T15:50:23.575Z,10.68
2023-01-12T15:52:51.628Z,9.28
2023-01-12T15:55:21.766Z,10.66
2023-01-12T15:57:50.833Z,9.56
2023-01-12T16:00:20.908Z,10.36
2023-01-12T16:02:49.105Z,8.09
2023-01-12T16:05:23.928Z,9.27
2023-01-12T16:07:50.729Z,10.41
2023-01-12T16:10:18.688Z,8.65
2023-01-12T16:12:48.094Z,8.64
2023-01-12T16:15:21.963Z,11.25
2023-01-12T16:17:49.795Z,10.62
2023-01-12T16:20:18.849Z,8.38
2023-01-12T16:22:46.873Z,9.38
2023-01-12T16:25:14.351Z,9.62
2023-01-12T16:27:41.333Z,10.27
2023-01-12T16:30:12.783Z,10.29
2023-01-12T16:32:41.159Z,9.89
2023-01-12T16:35:08.486Z,11.34
2023-01-12T16:37:35.581Z,11.90
2023-01-12T16:40:02.483Z,10.22
2023-01-12T16:42:29.690Z,11.08
2023-01-12T16:44:56.452Z,10.99
2023-01-12T16:47:24.664Z,10.48
2023-01-12T16:49:52.302Z,10.73
2023-01-12T16:52:21.124Z,9.65
2023-01-12T16:54:48.141Z,11.67
2023-01-12T16:57:16.983Z,10.65
2023-01-12T16:59:44.839Z,10.15
2023-01-12T17:02:16.291Z,9.19
2023-01-12T17:04:44.948Z,5.72
2023-01-12T17:07:13.021Z,8.80
2023-01-12T17:09:40.681Z,9.94
2023-01-12T17:12:08.641Z,9.32
2023-01-12T17:14:35.995Z,7.95
2023-01-12T17:17:06.654Z,8.88
2023-01-12T17:19:35.943Z,7.62
2023-01-12T17:22:05.020Z,9.87
2023-01-12T17:24:34.073Z,7.50
2023-01-12T17:27:01.355Z,10.43
2023-01-12T17:29:29.421Z,8.53
2023-01-12T17:32:06.334Z,9.63
2023-01-12T17:37:04.255Z,10.10
2023-01-12T17:39:31.535Z,9.89
2023-01-12T17:42:17.053Z,9.24
2023-01-12T17:44:44.384Z,9.25
2023-01-12T17:47:11.881Z,9.27
2023-01-12T17:49:39.185Z,7.34
2023-01-12T17:52:05.898Z,9.03
2023-01-12T17:54:32.707Z,6.84
2023-01-12T17:57:00.350Z,9.01
2023-01-12T17:59:27.264Z,9.00
2023-01-12T18:01:55.412Z,8.24
2023-01-12T18:04:22.205Z,9.60
2023-01-12T18:06:49.360Z,7.41
2023-01-12T18:09:16.962Z,9.49
2023-01-12T18:11:43.981Z,8.85
2023-01-12T18:14:12.062Z,8.24
2023-01-12T18:16:39.312Z,8.35
2023-01-12T18:19:09.202Z,9.01
2023-01-12T18:21:36.247Z,9.35
2023-01-12T18:24:03.541Z,9.09
2023-01-12T18:26:33.641Z,8.55
2023-01-12T18:29:01.553Z,6.25
2023-01-12T18:31:37.257Z,7.44
2023-01-12T18:34:06.105Z,7.67
2023-01-12T18:36:35.816Z,7.43
2023-01-12T18:39:05.552Z,7.83
2023-01-12T18:41:50.748Z,6.70
2023-01-12T18:44:17.627Z,6.34
2023-01-12T18:47:02.840Z,6.59
2023-01-12T18:49:33.243Z,6.50
2023-01-12T18:52:20.046Z,8.81
2023-01-12T18:54:48.360Z,8.00
2023-01-12T18:57:18.887Z,7.24
2023-01-12T18:59:47.176Z,7.40
2023-01-12T19:02:15.193Z,5.94
2023-01-12T19:04:42.888Z,6.76
2023-01-12T19:07:12.557Z,6.10
2023-01-12T19:09:39.801Z,7.09
2023-01-12T19:12:07.149Z,7.44
2023-01-12T19:14:52.581Z,8.56
2023-01-12T19:17:32.668Z,8.84
2023-01-12T19:20:06.164Z,9.29
2023-01-12T19:22:52.057Z,6.57
2023-01-12T19:25:39.992Z,7.34
2023-01-12T19:28:29.554Z,8.01
2023-01-12T19:31:02.986Z,7.83
2023-01-12T19:33:31.333Z,8.43
2023-01-12T19:35:58.787Z,6.24
2023-01-12T19:38:26.272Z,7.19
2023-01-12T19:40:54.544Z,6.24
2023-01-12T19:43:26.109Z,6.76
2023-01-12T19:46:01.428Z,7.97
2023-01-12T19:48:30.743Z,6.96
2023-01-12T19:51:10.305Z,9.44
2023-01-12T19:53:39.313Z,9.55
2023-01-12T19:56:31.443Z,9.13
2023-01-12T19:58:58.237Z,8.41
2023-01-12T20:01:25.772Z,7.80
2023-01-12T20:03:52.567Z,7.68
2023-01-12T20:06:19.309Z,7.28
2023-01-12T20:08:46.587Z,7.33
2023-01-12T20:11:13.974Z,8.73
2023-01-12T20:13:40.823Z,8.66
2023-01-12T20:16:09.698Z,7.58
2023-01-12T20:18:37.037Z,8.46
2023-01-12T20:21:08.563Z,5.68
2023-01-12T20:23:35.399Z,6.73
2023-01-12T20:26:06.450Z,5.85
2023-01-12T20:28:33.306Z,7.34
2023-01-12T20:31:00.280Z,7.35
2023-01-12T20:33:28.460Z,7.34
2023-01-12T20:35:55.677Z,7.50
2023-01-12T20:38:22.791Z,6.74
2023-01-12T20:40:50.009Z,8.06
2023-01-12T20:43:17.030Z,7.30
2023-01-12T20:45:44.444Z,7.01
2023-01-12T20:48:15.550Z,8.46
2023-01-12T20:50:46.825Z,9.07
2023-01-12T20:53:16.444Z,8.87
2023-01-12T20:55:44.600Z,9.35
2023-01-12T20:58:12.029Z,9.74
2023-01-12T21:00:38.855Z,9.83
2023-01-12T21:03:05.691Z,10.03
2023-01-12T21:05:34.798Z,9.65
2023-01-12T21:08:08.000Z,10.10
2023-01-12T21:10:36.600Z,8.50
2023-01-12T21:13:04.166Z,5.85
2023-01-12T21:15:32.350Z,7.45
2023-01-12T21:17:59.678Z,8.61
2023-01-12T21:20:26.599Z,6.00
2023-01-12T21:22:53.457Z,6.96
2023-01-12T21:25:20.329Z,9.14
2023-01-12T21:27:47.315Z,7.91
2023-01-12T21:30:14.663Z,9.19
2023-01-12T21:32:43.804Z,9.64
2023-01-12T21:35:10.636Z,7.89
2023-01-12T21:37:37.773Z,9.23
2023-01-12T21:40:04.914Z,8.67
2023-01-12T21:42:50.989Z,9.44
2023-01-12T21:45:18.980Z,8.44
2023-01-12T21:47:47.131Z,9.40
2023-01-12T21:50:13.995Z,8.58
2023-01-12T21:52:41.648Z,7.22
2023-01-12T21:55:13.934Z,7.21
2023-01-12T21:57:42.580Z,8.99
2023-01-12T22:00:10.548Z,8.87
2023-01-12T22:02:41.790Z,8.02
2023-01-12T22:05:09.991Z,8.99
2023-01-12T22:07:37.479Z,7.87
2023-01-12T22:10:24.823Z,5.71
2023-01-12T22:12:57.054Z,6.45
2023-01-12T22:15:24.904Z,8.90
2023-01-12T22:17:53.504Z,8.09
2023-01-12T22:20:20.991Z,7.71
2023-01-12T22:22:48.171Z,6.88
2023-01-12T22:25:16.587Z,5.60
2023-01-12T22:27:43.528Z,5.63
2023-01-12T22:30:14.121Z,4.49
2023-01-12T22:32:41.446Z,3.95
2023-01-12T22:35:09.122Z,7.84
2023-01-12T22:37:38.127Z,7.57
2023-01-12T22:40:07.392Z,7.43
2023-01-12T22:42:52.635Z,7.97
2023-01-12T22:45:19.531Z,8.27
2023-01-12T22:47:54.654Z,8.22
2023-01-12T22:50:22.672Z,7.93
2023-01-12T22:52:54.738Z,7.84
2023-01-12T22:55:23.493Z,7.85
2023-01-12T22:57:50.617Z,4.37
2023-01-12T23:00:19.761Z,5.45
2023-01-12T23:03:02.154Z,6.16
2023-01-12T23:05:36.066Z,6.13
2023-01-12T23:08:05.262Z,7.26
2023-01-12T23:10:32.589Z,5.01
2023-01-12T23:13:11.657Z,3.95
2023-01-12T23:15:39.705Z,6.68
2023-01-12T23:18:07.726Z,8.10
2023-01-12T23:20:36.200Z,6.00
2023-01-12T23:23:03.869Z,6.85
2023-01-12T23:25:34.682Z,6.38
2023-01-12T23:28:01.816Z,7.15
2023-01-12T23:30:30.789Z,8.82
2023-01-12T23:32:59.581Z,8.19
2023-01-12T23:35:27.656Z,8.15
2023-01-12T23:37:54.495Z,8.95
2023-01-12T23:40:21.595Z,8.48
2023-01-12T23:42:48.743Z,9.49
2023-01-12T23:45:15.850Z,8.17
2023-01-12T23:47:42.946Z,8.55
2023-01-12T23:50:12.082Z,6.91
2023-01-12T23:52:39.284Z,9.29
2023-01-12T23:55:07.048Z,9.56
2023-01-12T23:57:35.433Z,7.63
